createdAt,value
2023-04-15T00:00:30.538Z,88.56
2023-04-15T00:01:31.140Z,89.04
2023-04-15T00:02:31.838Z,88.56
2023-04-15T00:03:32.672Z,89.08
2023-04-15T00:04:32.936Z,89.08
2023-04-15T00:05:33.020Z,88.62
2023-04-15T00:06:33.626Z,88.42
2023-04-15T00:07:34.228Z,87.86
2023-04-15T00:08:34.810Z,87.09
2023-04-15T00:09:35.404Z,86.57
2023-04-15T00:10:36.021Z,86.05
2023-04-15T00:11:36.611Z,86.36
2023-04-15T00:12:37.213Z,86.41
2023-04-15T00:13:37.844Z,87.24
2023-04-15T00:14:38.426Z,87.79
2023-04-15T00:15:38.998Z,87.07
2023-04-15T00:16:39.638Z,87.17
2023-04-15T00:17:40.289Z,87.48
2023-04-15T00:18:40.941Z,87.69
2023-04-15T00:19:41.541Z,87.59
2023-04-15T00:20:42.164Z,87.03
2023-04-15T00:21:42.779Z,87.27
2023-04-15T00:22:43.393Z,88.00
2023-04-15T00:23:44.009Z,88.46
2023-04-15T00:24:44.612Z,89.29
2023-04-15T00:25:45.216Z,88.77
2023-04-15T00:26:45.813Z,89.18
2023-04-15T00:27:46.412Z,89.70
2023-04-15T00:28:47.001Z,89.15
2023-04-15T00:29:47.584Z,88.94
2023-04-15T00:30:48.199Z,88.46
2023-04-15T00:31:48.842Z,88.84
2023-04-15T00:32:49.562Z,88.38
2023-04-15T00:33:50.216Z,88.13
2023-04-15T00:34:50.812Z,86.64
2023-04-15T00:35:51.441Z,86.02
2023-04-15T00:36:52.033Z,86.22
2023-04-15T00:37:52.624Z,85.97
2023-04-15T00:38:53.198Z,85.66
2023-04-15T00:39:53.805Z,85.11
2023-04-15T00:40:54.397Z,85.00
2023-04-15T00:41:54.987Z,84.90
2023-04-15T00:42:55.585Z,85.11
2023-04-15T00:43:56.186Z,85.00
2023-04-15T00:44:56.791Z,84.90
2023-04-15T00:45:57.407Z,84.63
2023-04-15T00:46:58.068Z,86.02
2023-04-15T00:47:58.700Z,86.99
2023-04-15T00:48:59.665Z,87.82
2023-04-15T00:49:59.781Z,88.34
2023-04-15T00:51:00.383Z,88.38
2023-04-15T00:52:00.993Z,88.44
2023-04-15T00:53:01.625Z,88.75
2023-04-15T00:54:02.315Z,88.79
2023-04-15T00:55:02.943Z,88.44
2023-04-15T00:56:03.525Z,89.11
2023-04-15T00:57:04.102Z,89.46
2023-04-15T00:58:04.694Z,90.08
2023-04-15T00:59:05.264Z,90.08
2023-04-15T01:00:05.884Z,89.77
2023-04-15T01:01:06.575Z,89.87
2023-04-15T01:02:06.845Z,90.19
2023-04-15T01:03:07.113Z,90.44
2023-04-15T01:04:07.806Z,90.58
2023-04-15T01:05:08.431Z,90.69
2023-04-15T01:06:09.018Z,90.85
2023-04-15T01:07:09.593Z,90.08
2023-04-15T01:08:10.241Z,89.06
2023-04-15T01:09:10.827Z,88.34
2023-04-15T01:10:11.484Z,87.26
2023-04-15T01:11:12.119Z,86.74
2023-04-15T01:12:12.711Z,87.40
2023-04-15T01:13:13.333Z,87.61
2023-04-15T01:14:13.932Z,87.78
2023-04-15T01:15:14.527Z,87.37
2023-04-15T01:16:15.158Z,87.16
2023-04-15T01:17:15.785Z,87.05
2023-04-15T01:18:16.359Z,86.85
2023-04-15T01:19:16.966Z,86.39
2023-04-15T01:20:17.549Z,86.08
2023-04-15T01:21:18.161Z,86.29
2023-04-15T01:22:18.741Z,86.08
2023-04-15T01:23:19.323Z,85.97
2023-04-15T01:24:19.915Z,86.18
2023-04-15T01:25:20.498Z,85.77
2023-04-15T01:26:21.095Z,85.97
2023-04-15T01:27:21.686Z,86.43
2023-04-15T01:28:22.286Z,86.74
2023-04-15T01:29:22.984Z,87.05
2023-04-15T01:30:23.599Z,87.16
2023-04-15T01:31:24.219Z,87.51
2023-04-15T01:32:24.837Z,87.92
2023-04-15T01:33:25.493Z,88.28
2023-04-15T01:34:26.102Z,88.79
2023-04-15T01:35:26.744Z,89.25
2023-04-15T01:36:27.325Z,89.92
2023-04-15T01:37:27.976Z,90.33
2023-04-15T01:38:28.599Z,90.79
2023-04-15T01:39:29.193Z,91.41
2023-04-15T01:40:29.776Z,91.31
2023-04-15T01:41:30.370Z,91.00
2023-04-15T01:42:30.960Z,91.20
2023-04-15T01:43:31.546Z,90.79
2023-04-15T01:44:32.142Z,90.16
2023-04-15T01:45:32.741Z,90.16
2023-04-15T01:46:33.359Z,90.26
2023-04-15T01:47:34.002Z,89.95
2023-04-15T01:48:34.613Z,89.95
2023-04-15T01:49:35.296Z,89.95
2023-04-15T01:50:35.961Z,89.94
2023-04-15T01:51:36.560Z,90.62
2023-04-15T01:52:37.158Z,91.14
2023-04-15T01:53:37.765Z,90.72
2023-04-15T01:54:38.387Z,90.93
2023-04-15T01:55:38.987Z,90.58
2023-04-15T01:56:39.624Z,90.75
2023-04-15T01:57:40.224Z,88.98
2023-04-15T01:58:40.830Z,89.18
2023-04-15T01:59:41.436Z,89.85
2023-04-15T02:00:42.066Z,90.20
2023-04-15T02:01:42.706Z,90.58
2023-04-15T02:02:43.437Z,90.79
2023-04-15T02:03:44.235Z,90.89
2023-04-15T02:04:44.291Z,90.89
2023-04-15T02:05:44.904Z,90.33
2023-04-15T02:06:45.516Z,90.12
2023-04-15T02:07:46.120Z,89.29
2023-04-15T02:08:46.707Z,89.23
2023-04-15T02:09:47.301Z,89.64
2023-04-15T02:10:47.897Z,89.85
2023-04-15T02:11:48.489Z,89.92
2023-04-15T02:12:49.085Z,89.85
2023-04-15T02:13:49.691Z,90.16
2023-04-15T02:14:50.301Z,90.37
2023-04-15T02:15:50.897Z,89.92
2023-04-15T02:16:51.720Z,89.75
2023-04-15T02:17:51.835Z,89.70
2023-04-15T02:18:52.423Z,89.39
2023-04-15T02:19:53.035Z,89.18
2023-04-15T02:20:53.647Z,89.33
2023-04-15T02:21:54.259Z,89.64
2023-04-15T02:22:54.866Z,89.33
2023-04-15T02:23:55.455Z,89.43
2023-04-15T02:24:56.049Z,89.75
2023-04-15T02:25:56.640Z,89.92
2023-04-15T02:26:57.259Z,89.50
2023-04-15T02:27:57.853Z,88.98
2023-04-15T02:28:58.691Z,89.23
2023-04-15T02:29:58.853Z,89.43
2023-04-15T02:30:59.451Z,89.18
2023-04-15T02:32:00.103Z,88.56
2023-04-15T02:33:00.778Z,88.92
2023-04-15T02:34:01.402Z,88.85
2023-04-15T02:35:01.995Z,89.20
2023-04-15T02:36:02.609Z,89.62
2023-04-15T02:37:03.216Z,89.76
2023-04-15T02:38:03.833Z,89.98
2023-04-15T02:39:04.541Z,90.19
2023-04-15T02:40:05.187Z,89.73
2023-04-15T02:41:05.779Z,89.00
2023-04-15T02:42:06.364Z,88.79
2023-04-15T02:43:06.971Z,89.25
2023-04-15T02:44:08.286Z,90.19
2023-04-15T02:45:08.150Z,90.29
2023-04-15T02:46:08.810Z,90.25
2023-04-15T02:47:09.476Z,90.35
2023-04-15T02:48:10.090Z,90.70
2023-04-15T02:49:10.713Z,90.91
2023-04-15T02:50:11.329Z,90.91
2023-04-15T02:51:11.931Z,91.43
2023-04-15T02:52:12.553Z,91.37
2023-04-15T02:53:13.169Z,91.06
2023-04-15T02:54:13.797Z,91.37
2023-04-15T02:55:14.427Z,92.00
2023-04-15T02:56:15.036Z,91.37
2023-04-15T02:57:15.636Z,91.52
2023-04-15T02:58:16.218Z,91.62
2023-04-15T02:59:16.805Z,91.83
2023-04-15T03:00:17.421Z,91.89
2023-04-15T03:01:18.038Z,91.58
2023-04-15T03:02:18.740Z,91.12
2023-04-15T03:03:19.541Z,90.81
2023-04-15T03:04:19.724Z,90.91
2023-04-15T03:05:20.408Z,90.66
2023-04-15T03:06:21.020Z,90.19
2023-04-15T03:07:21.617Z,90.25
2023-04-15T03:08:22.232Z,90.25
2023-04-15T03:09:22.850Z,90.04
2023-04-15T03:10:23.462Z,90.70
2023-04-15T03:11:24.064Z,91.02
2023-04-15T03:12:24.661Z,91.43
2023-04-15T03:13:25.266Z,92.16
2023-04-15T03:14:25.875Z,92.16
2023-04-15T03:15:26.507Z,92.12
2023-04-15T03:16:27.118Z,91.91
2023-04-15T03:17:27.750Z,91.91
2023-04-15T03:18:28.352Z,91.66
2023-04-15T03:19:28.967Z,91.04
2023-04-15T03:20:29.621Z,91.35
2023-04-15T03:21:30.236Z,91.35
2023-04-15T03:22:30.829Z,91.60
2023-04-15T03:23:31.416Z,91.91
2023-04-15T03:24:32.031Z,92.33
2023-04-15T03:25:32.664Z,92.29
2023-04-15T03:26:33.275Z,92.18
2023-04-15T03:27:33.890Z,91.56
2023-04-15T03:28:34.502Z,92.08
2023-04-15T03:29:35.159Z,91.71
2023-04-15T03:30:35.798Z,91.60
2023-04-15T03:31:36.448Z,92.02
2023-04-15T03:32:37.118Z,92.33
2023-04-15T03:33:37.792Z,92.02
2023-04-15T03:34:38.390Z,91.81
2023-04-15T03:35:38.994Z,91.77
2023-04-15T03:36:39.628Z,91.14
2023-04-15T03:37:40.248Z,90.77
2023-04-15T03:38:40.850Z,91.28
2023-04-15T03:39:41.444Z,90.97
2023-04-15T03:40:42.071Z,90.97
2023-04-15T03:41:42.684Z,91.25
2023-04-15T03:42:43.307Z,90.83
2023-04-15T03:43:43.930Z,90.66
2023-04-15T03:44:44.536Z,90.97
2023-04-15T03:45:45.152Z,91.18
2023-04-15T03:46:45.886Z,91.39
2023-04-15T03:47:46.075Z,91.60
2023-04-15T03:48:46.690Z,91.60
2023-04-15T03:49:47.340Z,91.71
2023-04-15T03:50:47.956Z,91.91
2023-04-15T03:51:48.563Z,91.91
2023-04-15T03:52:50.735Z,91.71
2023-04-15T03:53:49.527Z,91.71
2023-04-15T03:54:50.129Z,91.39
2023-04-15T03:55:50.733Z,91.39
2023-04-15T03:56:51.359Z,91.35
2023-04-15T03:57:51.975Z,90.52
2023-04-15T03:58:52.606Z,90.56
2023-04-15T03:59:53.221Z,90.87
2023-04-15T04:00:53.833Z,90.87
2023-04-15T04:01:54.602Z,91.14
2023-04-15T04:02:55.336Z,90.93
2023-04-15T04:03:55.681Z,90.56
2023-04-15T04:04:56.348Z,90.60
2023-04-15T04:05:56.960Z,91.02
2023-04-15T04:06:57.598Z,91.39
2023-04-15T04:07:58.215Z,91.18
2023-04-15T04:08:58.937Z,91.35
2023-04-15T04:09:59.607Z,90.72
2023-04-15T04:11:00.212Z,90.20
2023-04-15T04:12:00.843Z,90.87
2023-04-15T04:13:01.485Z,91.39
2023-04-15T04:14:02.181Z,91.53
2023-04-15T04:15:02.805Z,91.75
2023-04-15T04:16:03.493Z,92.10
2023-04-15T04:17:04.154Z,92.83
2023-04-15T04:18:04.790Z,92.72
2023-04-15T04:19:05.450Z,91.93
2023-04-15T04:20:06.066Z,92.14
2023-04-15T04:21:06.670Z,92.97
2023-04-15T04:22:07.282Z,92.87
2023-04-15T04:23:07.882Z,92.14
2023-04-15T04:24:08.481Z,92.21
2023-04-15T04:25:09.088Z,91.83
2023-04-15T04:26:09.707Z,92.03
2023-04-15T04:27:10.300Z,92.35
2023-04-15T04:28:10.927Z,91.83
2023-04-15T04:29:11.537Z,91.37
2023-04-15T04:30:12.169Z,91.37
2023-04-15T04:31:12.788Z,91.41
2023-04-15T04:32:13.480Z,91.10
2023-04-15T04:33:14.135Z,91.10
2023-04-15T04:34:14.754Z,91.00
2023-04-15T04:35:15.372Z,91.52
2023-04-15T04:36:16.001Z,91.31
2023-04-15T04:37:16.650Z,91.10
2023-04-15T04:38:17.256Z,91.31
2023-04-15T04:39:17.868Z,91.62
2023-04-15T04:40:18.474Z,91.83
2023-04-15T04:41:19.093Z,91.93
2023-04-15T04:42:19.756Z,91.62
2023-04-15T04:43:20.463Z,91.72
2023-04-15T04:44:21.171Z,91.72
2023-04-15T04:45:21.846Z,91.52
2023-04-15T04:46:22.569Z,91.52
2023-04-15T04:47:23.275Z,91.93
2023-04-15T04:48:23.975Z,91.46
2023-04-15T04:49:24.649Z,91.56
2023-04-15T04:50:25.289Z,91.14
2023-04-15T04:51:25.929Z,91.04
2023-04-15T04:52:26.570Z,91.77
2023-04-15T04:53:27.228Z,91.87
2023-04-15T04:54:27.884Z,91.56
2023-04-15T04:55:28.528Z,91.46
2023-04-15T04:56:29.170Z,92.18
2023-04-15T04:57:29.416Z,92.08
2023-04-15T04:58:30.069Z,91.46
2023-04-15T04:59:30.728Z,91.35
2023-04-15T05:00:31.528Z,91.14
2023-04-15T05:01:31.648Z,91.14
2023-04-15T05:02:32.440Z,91.04
2023-04-15T05:03:32.683Z,90.83
2023-04-15T05:04:33.398Z,90.93
2023-04-15T05:05:34.037Z,91.04
2023-04-15T05:06:34.669Z,91.04
2023-04-15T05:07:35.326Z,91.35
2023-04-15T05:08:35.974Z,91.81
2023-04-15T05:09:36.621Z,92.12
2023-04-15T05:10:37.257Z,92.06
2023-04-15T05:11:37.890Z,92.27
2023-04-15T05:12:38.594Z,92.58
2023-04-15T05:13:39.264Z,93.21
2023-04-15T05:14:39.925Z,92.96
2023-04-15T05:15:40.629Z,92.33
2023-04-15T05:16:41.300Z,92.65
2023-04-15T05:17:41.964Z,92.54
2023-04-15T05:18:42.696Z,93.06
2023-04-15T05:19:43.338Z,92.85
2023-04-15T05:20:43.973Z,92.75
2023-04-15T05:21:44.610Z,92.85
2023-04-15T05:22:45.238Z,93.27
2023-04-15T05:23:45.914Z,93.48
2023-04-15T05:24:46.562Z,93.33
2023-04-15T05:25:47.224Z,93.65
2023-04-15T05:26:47.876Z,93.23
2023-04-15T05:27:48.521Z,92.56
2023-04-15T05:28:49.176Z,91.93
2023-04-15T05:29:49.821Z,92.18
2023-04-15T05:30:50.579Z,92.18
2023-04-15T05:31:50.746Z,92.71
2023-04-15T05:32:51.526Z,92.87
2023-04-15T05:33:52.293Z,92.41
2023-04-15T05:34:53.042Z,91.58
2023-04-15T05:35:53.762Z,91.33
2023-04-15T05:36:54.482Z,91.02
2023-04-15T05:37:55.213Z,90.60
2023-04-15T05:38:55.954Z,90.81
2023-04-15T05:39:56.694Z,90.19
2023-04-15T05:40:57.436Z,90.44
2023-04-15T05:41:58.192Z,91.16
2023-04-15T05:42:58.945Z,91.96
2023-04-15T05:43:59.695Z,91.64
2023-04-15T05:45:00.461Z,91.02
2023-04-15T05:46:01.303Z,91.22
2023-04-15T05:47:01.539Z,92.47
2023-04-15T05:48:02.368Z,92.47
2023-04-15T05:49:02.894Z,92.85
2023-04-15T05:50:03.217Z,92.43
2023-04-15T05:51:03.941Z,92.43
2023-04-15T05:52:04.702Z,92.33
2023-04-15T05:53:05.446Z,92.22
2023-04-15T05:54:06.198Z,91.97
2023-04-15T05:55:06.958Z,91.66
2023-04-15T05:56:07.708Z,91.87
2023-04-15T05:57:08.441Z,91.83
2023-04-15T05:58:09.158Z,91.87
2023-04-15T05:59:09.900Z,91.56
2023-04-15T06:00:10.625Z,91.66
2023-04-15T06:01:11.390Z,91.87
2023-04-15T06:02:12.131Z,92.45
2023-04-15T06:03:13.043Z,92.45
2023-04-15T06:04:13.225Z,92.03
2023-04-15T06:05:13.387Z,92.24
2023-04-15T06:06:14.067Z,92.55
2023-04-15T06:07:14.810Z,92.55
2023-04-15T06:08:15.552Z,92.55
2023-04-15T06:09:16.303Z,92.51
2023-04-15T06:10:17.052Z,92.41
2023-04-15T06:11:17.751Z,91.78
2023-04-15T06:12:18.430Z,91.58
2023-04-15T06:13:19.122Z,91.89
2023-04-15T06:14:19.839Z,91.58
2023-04-15T06:15:20.532Z,90.91
2023-04-15T06:16:21.321Z,90.91
2023-04-15T06:17:21.552Z,90.29
2023-04-15T06:18:22.281Z,90.14
2023-04-15T06:19:22.986Z,90.04
2023-04-15T06:20:23.663Z,90.14
2023-04-15T06:21:24.322Z,90.14
2023-04-15T06:22:25.006Z,89.31
2023-04-15T06:23:26.923Z,89.58
2023-04-15T06:24:26.274Z,89.86
2023-04-15T06:25:26.950Z,89.23
2023-04-15T06:26:27.652Z,89.03
2023-04-15T06:27:28.389Z,88.88
2023-04-15T06:28:29.075Z,88.67
2023-04-15T06:29:29.745Z,88.67
2023-04-15T06:30:30.379Z,88.73
2023-04-15T06:31:31.057Z,88.21
2023-04-15T06:32:31.768Z,87.80
2023-04-15T06:33:32.420Z,87.70
2023-04-15T06:34:33.077Z,87.24
2023-04-15T06:35:33.687Z,86.83
2023-04-15T06:36:34.312Z,87.24
2023-04-15T06:37:34.932Z,87.24
2023-04-15T06:38:35.547Z,86.83
2023-04-15T06:39:36.151Z,86.47
2023-04-15T06:40:36.777Z,86.07
2023-04-15T06:41:37.389Z,85.55
2023-04-15T06:42:38.001Z,85.82
2023-04-15T06:43:38.616Z,85.82
2023-04-15T06:44:40.293Z,85.26
2023-04-15T06:45:39.844Z,84.06
2023-04-15T06:46:40.468Z,84.47
2023-04-15T06:47:41.117Z,84.88
2023-04-15T06:48:41.761Z,83.50
2023-04-15T06:49:42.350Z,83.09
2023-04-15T06:50:42.950Z,81.60
2023-04-15T06:51:43.533Z,81.46
2023-04-15T06:52:44.163Z,81.84
2023-04-15T06:53:44.771Z,81.11
2023-04-15T06:54:45.362Z,79.42
2023-04-15T06:55:45.980Z,78.49
2023-04-15T06:56:46.573Z,78.87
2023-04-15T06:57:47.157Z,78.77
2023-04-15T06:58:47.750Z,77.32
2023-04-15T06:59:48.367Z,77.87
2023-04-15T07:00:48.968Z,77.87
2023-04-15T07:01:49.589Z,77.87
2023-04-15T07:02:50.207Z,76.94
2023-04-15T07:03:50.850Z,77.36
2023-04-15T07:04:51.466Z,77.53
2023-04-15T07:05:52.059Z,77.59
2023-04-15T07:06:52.667Z,76.87
2023-04-15T07:07:53.281Z,76.35
2023-04-15T07:08:53.854Z,75.12
2023-04-15T07:09:54.499Z,73.74
2023-04-15T07:10:55.091Z,72.81
2023-04-15T07:11:55.669Z,71.95
2023-04-15T07:12:56.267Z,72.37
2023-04-15T07:13:56.840Z,71.85
2023-04-15T07:14:57.422Z,71.64
2023-04-15T07:15:58.027Z,71.44
2023-04-15T07:16:58.647Z,70.00
2023-04-15T07:17:59.292Z,70.51
2023-04-15T07:19:00.197Z,71.55
2023-04-15T07:20:00.459Z,72.03
2023-04-15T07:21:01.097Z,70.89
2023-04-15T07:22:01.681Z,71.61
2023-04-15T07:23:02.250Z,71.78
2023-04-15T07:24:02.809Z,69.31
2023-04-15T07:25:03.468Z,69.01
2023-04-15T07:26:04.064Z,69.42
2023-04-15T07:27:04.659Z,69.93
2023-04-15T07:28:05.257Z,70.14
2023-04-15T07:29:05.831Z,69.31
2023-04-15T07:30:06.414Z,69.59
2023-04-15T07:31:07.056Z,68.87
2023-04-15T07:32:07.684Z,67.33
2023-04-15T07:33:08.267Z,67.60
2023-04-15T07:34:08.839Z,68.22
2023-04-15T07:35:09.394Z,67.60
2023-04-15T07:36:09.980Z,68.02
2023-04-15T07:37:10.612Z,68.02
2023-04-15T07:38:11.186Z,68.12
2023-04-15T07:39:11.757Z,67.50
2023-04-15T07:40:12.309Z,68.19
2023-04-15T07:41:13.079Z,68.29
2023-04-15T07:42:13.223Z,67.16
2023-04-15T07:43:13.241Z,66.75
2023-04-15T07:44:13.909Z,67.91
2023-04-15T07:45:14.526Z,66.75
2023-04-15T07:46:15.167Z,67.03
2023-04-15T07:47:15.785Z,66.20
2023-04-15T07:48:16.327Z,66.00
2023-04-15T07:49:16.874Z,67.03
2023-04-15T07:50:17.413Z,66.93
2023-04-15T07:51:17.971Z,66.38
2023-04-15T07:52:18.507Z,64.32
2023-04-15T07:53:19.059Z,65.45
2023-04-15T07:54:19.612Z,66.45
2023-04-15T07:55:20.201Z,63.98
2023-04-15T07:56:20.788Z,64.70
2023-04-15T07:57:21.353Z,65.12
2023-04-15T07:58:21.980Z,64.37
2023-04-15T07:59:22.546Z,63.44
2023-04-15T08:00:23.131Z,63.24
2023-04-15T08:01:23.748Z,65.77
2023-04-15T08:02:24.375Z,64.88
2023-04-15T08:03:24.462Z,64.16
2023-04-15T08:04:25.202Z,64.57
2023-04-15T08:05:25.349Z,64.98
2023-04-15T08:06:25.916Z,63.96
2023-04-15T08:07:26.523Z,63.78
2023-04-15T08:08:27.061Z,63.75
2023-04-15T08:09:27.612Z,63.68
2023-04-15T08:10:28.166Z,64.78
2023-04-15T08:11:28.710Z,64.37
2023-04-15T08:12:35.313Z,63.31
2023-04-15T08:13:29.425Z,64.64
2023-04-15T08:14:29.985Z,62.49
2023-04-15T08:15:30.550Z,62.70
2023-04-15T08:16:31.228Z,63.42
2023-04-15T08:17:31.272Z,63.56
2023-04-15T08:18:31.816Z,63.05
2023-04-15T08:19:32.369Z,62.54
2023-04-15T08:20:32.928Z,62.12
2023-04-15T08:21:33.489Z,62.56
2023-04-15T08:22:34.051Z,63.05
2023-04-15T08:23:34.608Z,61.82
2023-04-15T08:24:35.156Z,62.33
2023-04-15T08:25:35.631Z,62.81
2023-04-15T08:26:36.286Z,62.10
2023-04-15T08:27:36.914Z,62.19
2023-04-15T08:28:37.508Z,61.04
2023-04-15T08:29:38.102Z,61.55
2023-04-15T08:30:38.686Z,60.22
2023-04-15T08:31:39.290Z,59.53
2023-04-15T08:32:39.479Z,60.25
2023-04-15T08:33:40.096Z,59.30
2023-04-15T08:34:40.691Z,58.81
2023-04-15T08:35:41.290Z,59.30
2023-04-15T08:36:41.871Z,59.00
2023-04-15T08:37:42.466Z,58.40
2023-04-15T08:38:43.045Z,59.61
2023-04-15T08:39:43.638Z,59.17
2023-04-15T08:40:44.253Z,58.94
2023-04-15T08:41:44.852Z,57.71
2023-04-15T08:42:45.429Z,58.40
2023-04-15T08:43:46.019Z,58.91
2023-04-15T08:44:46.640Z,57.97
2023-04-15T08:45:47.259Z,57.86
2023-04-15T08:46:47.950Z,57.15
2023-04-15T08:47:48.082Z,58.25
2023-04-15T08:48:48.182Z,56.20
2023-04-15T08:49:48.769Z,55.89
2023-04-15T08:50:49.332Z,56.74
2023-04-15T08:51:49.935Z,57.45
2023-04-15T08:52:50.526Z,57.53
2023-04-15T08:53:51.113Z,57.02
2023-04-15T08:54:51.737Z,56.51
2023-04-15T08:55:52.323Z,55.18
2023-04-15T08:56:53.021Z,55.00
2023-04-15T08:57:53.054Z,56.02
2023-04-15T08:58:53.601Z,55.89
2023-04-15T08:59:54.162Z,56.12
2023-04-15T09:00:54.747Z,57.73
2023-04-15T09:01:55.418Z,58.86
2023-04-15T09:02:56.121Z,58.14
2023-04-15T09:03:56.224Z,58.83
2023-04-15T09:04:56.258Z,55.46
2023-04-15T09:05:56.831Z,55.36
2023-04-15T09:06:57.396Z,55.26
2023-04-15T09:07:57.971Z,55.18
2023-04-15T09:08:58.567Z,56.38
2023-04-15T09:09:59.142Z,53.52
2023-04-15T09:10:59.714Z,55.36
2023-04-15T09:12:00.289Z,55.84
2023-04-15T09:13:00.851Z,56.84
2023-04-15T09:14:01.479Z,54.79
2023-04-15T09:15:02.106Z,54.79
2023-04-15T09:16:02.685Z,53.90
2023-04-15T09:17:03.318Z,52.78
2023-04-15T09:18:03.388Z,54.00
2023-04-15T09:19:04.105Z,53.98
2023-04-15T09:20:04.086Z,54.90
2023-04-15T09:21:04.649Z,53.67
2023-04-15T09:22:05.237Z,53.96
2023-04-15T09:23:05.798Z,53.55
2023-04-15T09:24:06.373Z,55.10
2023-04-15T09:25:06.936Z,55.23
2023-04-15T09:26:07.518Z,54.13
2023-04-15T09:27:08.096Z,56.07
2023-04-15T09:28:08.662Z,54.92
2023-04-15T09:29:09.290Z,56.27
2023-04-15T09:30:10.003Z,55.05
2023-04-15T09:31:10.037Z,56.27
2023-04-15T09:32:10.606Z,55.74
2023-04-15T09:33:11.175Z,55.91
2023-04-15T09:34:11.729Z,55.51
2023-04-15T09:35:12.296Z,55.71
2023-04-15T09:36:12.855Z,55.91
2023-04-15T09:37:24.634Z,56.94
2023-04-15T09:38:13.675Z,56.20
2023-04-15T09:39:14.253Z,52.81
2023-04-15T09:40:14.807Z,51.28
2023-04-15T09:41:15.353Z,52.09
2023-04-15T09:42:15.896Z,52.40
2023-04-15T09:43:16.427Z,51.56
2023-04-15T09:44:16.982Z,51.05
2023-04-15T09:45:17.549Z,49.52
2023-04-15T09:46:18.145Z,49.01
2023-04-15T09:47:18.897Z,49.11
2023-04-15T09:48:18.877Z,49.42
2023-04-15T09:49:19.473Z,50.44
2023-04-15T09:50:20.048Z,51.05
2023-04-15T09:51:20.583Z,53.19
2023-04-15T09:52:21.127Z,51.68
2023-04-15T09:53:21.684Z,51.07
2023-04-15T09:54:22.261Z,52.70
2023-04-15T09:55:22.795Z,51.56
2023-04-15T09:56:23.344Z,50.46
2023-04-15T09:57:23.901Z,50.77
2023-04-15T09:58:24.471Z,50.84
2023-04-15T09:59:25.031Z,50.64
2023-04-15T10:00:25.594Z,50.03
2023-04-15T10:01:26.178Z,49.70
2023-04-15T10:02:26.849Z,50.11
2023-04-15T10:03:27.116Z,51.43
2023-04-15T10:04:27.196Z,51.86
2023-04-15T10:05:29.158Z,54.03
2023-04-15T10:06:27.975Z,54.26
2023-04-15T10:07:28.502Z,55.07
2023-04-15T10:08:29.039Z,52.73
2023-04-15T10:09:29.570Z,52.73
2023-04-15T10:10:30.115Z,53.44
2023-04-15T10:11:31.811Z,53.62
2023-04-15T10:12:30.761Z,52.29
2023-04-15T10:13:31.329Z,52.68
2023-04-15T10:14:31.882Z,51.53
2023-04-15T10:15:32.444Z,52.04
2023-04-15T10:16:33.043Z,52.53
2023-04-15T10:17:33.629Z,51.41
2023-04-15T10:18:34.215Z,50.90
2023-04-15T10:19:34.763Z,50.90
2023-04-15T10:20:35.303Z,52.22
2023-04-15T10:21:35.827Z,52.73
2023-04-15T10:22:36.360Z,52.02
2023-04-15T10:23:36.921Z,52.83
2023-04-15T10:24:37.523Z,51.92
2023-04-15T10:25:38.095Z,52.22
2023-04-15T10:26:38.633Z,51.13
2023-04-15T10:27:39.153Z,52.04
2023-04-15T10:28:39.681Z,52.22
2023-04-15T10:29:40.229Z,51.00
2023-04-15T10:30:40.792Z,51.41
2023-04-15T10:31:41.431Z,51.31
2023-04-15T10:32:41.537Z,51.00
2023-04-15T10:33:41.590Z,50.80
2023-04-15T10:34:42.124Z,51.03
2023-04-15T10:35:42.662Z,51.33
2023-04-15T10:36:43.211Z,52.04
2023-04-15T10:37:43.764Z,52.25
2023-04-15T10:38:44.322Z,51.33
2023-04-15T10:39:44.836Z,51.33
2023-04-15T10:40:45.386Z,52.96
2023-04-15T10:41:45.915Z,52.12
2023-04-15T10:42:46.451Z,51.81
2023-04-15T10:43:47.006Z,51.84
2023-04-15T10:44:47.547Z,52.86
2023-04-15T10:45:48.077Z,53.47
2023-04-15T10:46:48.640Z,52.76
2023-04-15T10:47:49.226Z,53.16
2023-04-15T10:48:49.818Z,53.47
2023-04-15T10:49:50.498Z,53.27
2023-04-15T10:50:50.503Z,53.37
2023-04-15T10:51:51.044Z,53.67
2023-04-15T10:52:51.589Z,52.96
2023-04-15T10:53:52.124Z,52.58
2023-04-15T10:54:52.663Z,52.98
2023-04-15T10:55:53.200Z,54.21
2023-04-15T10:56:53.720Z,55.02
2023-04-15T10:57:54.270Z,53.50
2023-04-15T10:58:54.888Z,53.70
2023-04-15T10:59:55.539Z,52.58
2023-04-15T11:00:56.110Z,51.66
2023-04-15T11:01:57.049Z,51.76
2023-04-15T11:02:57.292Z,50.03
2023-04-15T11:03:57.637Z,50.26
2023-04-15T11:04:57.758Z,49.54
2023-04-15T11:05:58.317Z,50.46
2023-04-15T11:06:58.849Z,49.93
2023-04-15T11:07:59.388Z,50.13
2023-04-15T11:08:59.945Z,50.11
2023-04-15T11:10:00.524Z,49.90
2023-04-15T11:11:01.046Z,49.80
2023-04-15T11:12:01.578Z,48.89
2023-04-15T11:13:02.114Z,49.52
2023-04-15T11:14:02.866Z,49.29
2023-04-15T11:15:03.025Z,50.11
2023-04-15T11:16:03.669Z,49.19
2023-04-15T11:17:03.654Z,48.58
2023-04-15T11:18:04.226Z,48.58
2023-04-15T11:19:04.753Z,48.48
2023-04-15T11:20:05.287Z,49.60
2023-04-15T11:21:05.818Z,48.18
2023-04-15T11:22:06.331Z,48.38
2023-04-15T11:23:14.018Z,48.60
2023-04-15T11:24:07.175Z,48.58
2023-04-15T11:25:07.236Z,48.38
2023-04-15T11:26:07.756Z,49.50
2023-04-15T11:27:07.814Z,48.38
2023-04-15T11:28:08.345Z,49.70
2023-04-15T11:29:08.925Z,49.80
2023-04-15T11:30:09.454Z,49.98
2023-04-15T11:31:10.002Z,48.46
2023-04-15T11:32:10.664Z,49.15
2023-04-15T11:33:10.646Z,48.05
2023-04-15T11:34:11.161Z,48.48
2023-04-15T11:35:11.691Z,49.48
2023-04-15T11:36:12.255Z,48.66
2023-04-15T11:37:12.798Z,49.37
2023-04-15T11:38:13.318Z,49.07
2023-04-15T11:39:13.838Z,49.68
2023-04-15T11:40:14.352Z,49.17
2023-04-15T11:41:14.853Z,49.17
2023-04-15T11:42:15.373Z,49.90
2023-04-15T11:43:15.893Z,50.11
2023-04-15T11:44:16.455Z,51.53
2023-04-15T11:45:16.978Z,50.19
2023-04-15T11:46:17.673Z,49.58
2023-04-15T11:47:17.743Z,49.88
2023-04-15T11:48:17.695Z,50.59
2023-04-15T11:49:18.203Z,50.70
2023-04-15T11:50:18.715Z,50.80
2023-04-15T11:51:19.254Z,50.29
2023-04-15T11:52:19.776Z,50.92
2023-04-15T11:53:20.281Z,51.84
2023-04-15T11:54:20.800Z,51.84
2023-04-15T11:55:21.319Z,51.15
2023-04-15T11:56:21.919Z,51.64
2023-04-15T11:57:22.458Z,51.94
2023-04-15T11:58:22.972Z,51.74
2023-04-15T11:59:26.321Z,51.84
2023-04-15T12:00:24.012Z,52.12
2023-04-15T12:01:24.534Z,51.81
2023-04-15T12:02:25.186Z,51.13
2023-04-15T12:03:25.555Z,51.94
2023-04-15T12:04:26.196Z,51.94
2023-04-15T12:05:26.271Z,51.43
2023-04-15T12:06:26.807Z,52.37
2023-04-15T12:07:27.359Z,52.37
2023-04-15T12:08:27.942Z,52.68
2023-04-15T12:09:29.108Z,52.58
2023-04-15T12:10:28.705Z,51.58
2023-04-15T12:11:29.222Z,51.99
2023-04-15T12:12:29.765Z,52.20
2023-04-15T12:13:30.303Z,52.20
2023-04-15T12:14:30.839Z,52.07
2023-04-15T12:15:31.446Z,51.97
2023-04-15T12:16:32.049Z,52.07
2023-04-15T12:17:51.359Z,52.17
2023-04-15T12:18:32.800Z,52.58
2023-04-15T12:19:33.337Z,53.62
2023-04-15T12:20:33.859Z,50.44
2023-04-15T12:21:34.393Z,48.63
2023-04-15T12:22:34.930Z,49.44
2023-04-15T12:23:35.463Z,50.36
2023-04-15T12:24:36.017Z,51.28
2023-04-15T12:25:36.543Z,51.58
2023-04-15T12:26:37.103Z,51.48
2023-04-15T12:27:37.660Z,52.88
2023-04-15T12:28:38.201Z,51.74
2023-04-15T12:29:38.782Z,51.35
2023-04-15T12:30:39.331Z,49.62
2023-04-15T12:31:39.978Z,47.49
2023-04-15T12:32:42.144Z,47.08
2023-04-15T12:33:40.368Z,48.40
2023-04-15T12:34:40.931Z,47.17
2023-04-15T12:35:41.491Z,46.26
2023-04-15T12:36:42.034Z,45.32
2023-04-15T12:37:42.564Z,44.31
2023-04-15T12:38:43.113Z,44.43
2023-04-15T12:39:43.682Z,44.63
2023-04-15T12:40:44.261Z,45.14
2023-04-15T12:41:44.791Z,42.37
2023-04-15T12:42:45.336Z,40.96
2023-04-15T12:43:45.867Z,42.59
2023-04-15T12:44:46.390Z,41.88
2023-04-15T12:45:46.915Z,41.27
2023-04-15T12:46:47.455Z,40.78
2023-04-15T12:47:48.057Z,41.80
2023-04-15T12:48:48.643Z,43.30
2023-04-15T12:49:49.207Z,43.20
2023-04-15T12:50:49.799Z,43.51
2023-04-15T12:51:50.380Z,44.02
2023-04-15T12:52:50.930Z,43.02
2023-04-15T12:53:51.479Z,43.53
2023-04-15T12:54:52.029Z,44.34
2023-04-15T12:55:52.580Z,44.55
2023-04-15T12:56:53.128Z,44.55
2023-04-15T12:57:53.680Z,44.75
2023-04-15T12:58:54.239Z,45.89
2023-04-15T12:59:54.792Z,45.39